sensor_id;sensor_type;location;lat;lon;timestamp;P1;durP1;ratioP1;P2;durP2;ratioP2
18657;SDS011;9458;50.942;5.074;2022-11-18T00:01:05;3.90;;;1.80;;
18657;SDS011;9458;50.942;5.074;2022-11-18T00:03:36;3.90;;;1.67;;
18657;SDS011;9458;50.942;5.074;2022-11-18T00:06:04;1.85;;;1.45;;
18657;SDS011;9458;50.942;5.074;2022-11-18T00:08:33;4.05;;;2.08;;
18657;SDS011;9458;50.942;5.074;2022-11-18T00:11:05;2.65;;;1.50;;
18657;SDS011;9458;50.942;5.074;2022-11-18T00:13:37;9.23;;;2.28;;
18657;SDS011;9458;50.942;5.074;2022-11-18T00:16:37;6.88;;;1.70;;
18657;SDS011;9458;50.942;5.074;2022-11-18T00:19:06;3.80;;;1.73;;
18657;SDS011;9458;50.942;5.074;2022-11-18T00:21:34;4.32;;;1.55;;
18657;SDS011;9458;50.942;5.074;2022-11-18T00:24:02;2.65;;;1.73;;
18657;SDS011;9458;50.942;5.074;2022-11-18T00:26:34;4.93;;;2.30;;
18657;SDS011;9458;50.942;5.074;2022-11-18T00:29:02;2.30;;;1.38;;
18657;SDS011;9458;50.942;5.074;2022-11-18T00:31:30;2.85;;;1.60;;
18657;SDS011;9458;50.942;5.074;2022-11-18T00:33:58;3.10;;;1.73;;
18657;SDS011;9458;50.942;5.074;2022-11-18T00:36:28;8.50;;;1.60;;
18657;SDS011;9458;50.942;5.074;2022-11-18T00:38:57;3.78;;;1.88;;
18657;SDS011;9458;50.942;5.074;2022-11-18T00:41:24;2.33;;;1.33;;
18657;SDS011;9458;50.942;5.074;2022-11-18T00:44:14;2.60;;;1.58;;
18657;SDS011;9458;50.942;5.074;2022-11-18T00:46:41;2.00;;;1.45;;
18657;SDS011;9458;50.942;5.074;2022-11-18T00:49:09;4.13;;;1.65;;
18657;SDS011;9458;50.942;5.074;2022-11-18T00:51:41;3.67;;;1.73;;
18657;SDS011;9458;50.942;5.074;2022-11-18T00:54:09;3.97;;;1.65;;
18657;SDS011;9458;50.942;5.074;2022-11-18T00:56:39;1.70;;;1.60;;
18657;SDS011;9458;50.942;5.074;2022-11-18T00:59:07;3.45;;;1.60;;
18657;SDS011;9458;50.942;5.074;2022-11-18T01:01:37;3.22;;;1.60;;
18657;SDS011;9458;50.942;5.074;2022-11-18T01:04:07;1.90;;;1.35;;
18657;SDS011;9458;50.942;5.074;2022-11-18T01:06:37;4.53;;;1.63;;
18657;SDS011;9458;50.942;5.074;2022-11-18T01:09:07;3.35;;;1.60;;
18657;SDS011;9458;50.942;5.074;2022-11-18T01:11:35;3.33;;;1.50;;
18657;SDS011;9458;50.942;5.074;2022-11-18T01:14:22;3.88;;;1.70;;
18657;SDS011;9458;50.942;5.074;2022-11-18T01:16:52;4.38;;;1.50;;
18657;SDS011;9458;50.942;5.074;2022-11-18T01:19:24;3.60;;;1.30;;
18657;SDS011;9458;50.942;5.074;2022-11-18T01:21:55;2.58;;;1.20;;
18657;SDS011;9458;50.942;5.074;2022-11-18T01:24:33;1.83;;;1.27;;
18657;SDS011;9458;50.942;5.074;2022-11-18T01:27:10;4.75;;;1.48;;
18657;SDS011;9458;50.942;5.074;2022-11-18T01:29:44;1.92;;;1.38;;
18657;SDS011;9458;50.942;5.074;2022-11-18T01:32:12;4.90;;;1.60;;
18657;SDS011;9458;50.942;5.074;2022-11-18T01:34:42;3.92;;;1.40;;
18657;SDS011;9458;50.942;5.074;2022-11-18T01:37:10;6.20;;;1.50;;
18657;SDS011;9458;50.942;5.074;2022-11-18T01:39:40;3.95;;;1.67;;
18657;SDS011;9458;50.942;5.074;2022-11-18T01:42:10;2.72;;;1.40;;
18657;SDS011;9458;50.942;5.074;2022-11-18T01:44:55;2.67;;;1.55;;
18657;SDS011;9458;50.942;5.074;2022-11-18T01:47:27;3.17;;;1.60;;
18657;SDS011;9458;50.942;5.074;2022-11-18T01:49:59;2.83;;;1.90;;
18657;SDS011;9458;50.942;5.074;2022-11-18T01:52:28;5.40;;;1.42;;
18657;SDS011;9458;50.942;5.074;2022-11-18T01:55:00;2.33;;;1.10;;
18657;SDS011;9458;50.942;5.074;2022-11-18T01:57:32;3.38;;;1.20;;
18657;SDS011;9458;50.942;5.074;2022-11-18T02:00:00;1.58;;;1.30;;
18657;SDS011;9458;50.942;5.074;2022-11-18T02:02:30;2.22;;;1.50;;
18657;SDS011;9458;50.942;5.074;2022-11-18T02:05:01;3.50;;;1.30;;
18657;SDS011;9458;50.942;5.074;2022-11-18T02:07:31;4.15;;;1.60;;
18657;SDS011;9458;50.942;5.074;2022-11-18T02:10:03;3.83;;;1.45;;
18657;SDS011;9458;50.942;5.074;2022-11-18T02:12:33;3.33;;;1.65;;
18657;SDS011;9458;50.942;5.074;2022-11-18T02:15:03;3.00;;;1.35;;
18657;SDS011;9458;50.942;5.074;2022-11-18T02:17:36;2.83;;;1.70;;
18657;SDS011;9458;50.942;5.074;2022-11-18T02:29:32;4.75;;;1.60;;
18657;SDS011;9458;50.942;5.074;2022-11-18T02:32:10;4.03;;;1.40;;
18657;SDS011;9458;50.942;5.074;2022-11-18T02:34:48;3.25;;;1.83;;
18657;SDS011;9458;50.942;5.074;2022-11-18T02:37:21;3.03;;;1.45;;
18657;SDS011;9458;50.942;5.074;2022-11-18T02:39:57;3.35;;;1.45;;
18657;SDS011;9458;50.942;5.074;2022-11-18T02:42:30;2.92;;;1.77;;
18657;SDS011;9458;50.942;5.074;2022-11-18T02:45:03;3.58;;;1.58;;
18657;SDS011;9458;50.942;5.074;2022-11-18T02:47:37;4.20;;;1.90;;
18657;SDS011;9458;50.942;5.074;2022-11-18T02:50:09;2.55;;;1.52;;
18657;SDS011;9458;50.942;5.074;2022-11-18T02:52:40;2.28;;;1.70;;
18657;SDS011;9458;50.942;5.074;2022-11-18T02:55:11;2.90;;;1.90;;
18657;SDS011;9458;50.942;5.074;2022-11-18T02:57:41;4.05;;;2.13;;
18657;SDS011;9458;50.942;5.074;2022-11-18T03:00:12;2.10;;;1.50;;
18657;SDS011;9458;50.942;5.074;2022-11-18T03:02:42;5.30;;;1.58;;
18657;SDS011;9458;50.942;5.074;2022-11-18T03:05:14;4.55;;;1.77;;
18657;SDS011;9458;50.942;5.074;2022-11-18T03:07:47;4.10;;;1.55;;
18657;SDS011;9458;50.942;5.074;2022-11-18T03:10:20;4.30;;;1.70;;
18657;SDS011;9458;50.942;5.074;2022-11-18T03:12:52;2.47;;;1.70;;
18657;SDS011;9458;50.942;5.074;2022-11-18T03:15:26;3.13;;;1.77;;
18657;SDS011;9458;50.942;5.074;2022-11-18T03:18:05;3.80;;;1.75;;
18657;SDS011;9458;50.942;5.074;2022-11-18T03:20:41;2.33;;;1.90;;
18657;SDS011;9458;50.942;5.074;2022-11-18T03:23:17;3.85;;;1.73;;
18657;SDS011;9458;50.942;5.074;2022-11-18T03:25:50;4.03;;;1.95;;
18657;SDS011;9458;50.942;5.074;2022-11-18T03:28:23;5.13;;;1.65;;
18657;SDS011;9458;50.942;5.074;2022-11-18T03:30:56;3.90;;;1.58;;
18657;SDS011;9458;50.942;5.074;2022-11-18T03:33:27;3.70;;;1.85;;
18657;SDS011;9458;50.942;5.074;2022-11-18T03:36:02;3.08;;;1.50;;
18657;SDS011;9458;50.942;5.074;2022-11-18T03:38:33;4.70;;;1.73;;
18657;SDS011;9458;50.942;5.074;2022-11-18T03:41:04;2.83;;;2.05;;
18657;SDS011;9458;50.942;5.074;2022-11-18T03:43:35;3.25;;;1.52;;
18657;SDS011;9458;50.942;5.074;2022-11-18T03:46:10;5.32;;;1.58;;
18657;SDS011;9458;50.942;5.074;2022-11-18T03:48:42;5.22;;;2.25;;
18657;SDS011;9458;50.942;5.074;2022-11-18T03:51:16;2.88;;;1.25;;
18657;SDS011;9458;50.942;5.074;2022-11-18T03:53:51;2.40;;;1.60;;
18657;SDS011;9458;50.942;5.074;2022-11-18T03:56:23;1.70;;;1.50;;
18657;SDS011;9458;50.942;5.074;2022-11-18T03:58:55;3.92;;;1.80;;
18657;SDS011;9458;50.942;5.074;2022-11-18T04:01:32;3.75;;;1.67;;
18657;SDS011;9458;50.942;5.074;2022-11-18T04:04:05;5.10;;;1.75;;
18657;SDS011;9458;50.942;5.074;2022-11-18T04:06:35;2.85;;;1.70;;
18657;SDS011;9458;50.942;5.074;2022-11-18T04:09:08;3.40;;;1.75;;
18657;SDS011;9458;50.942;5.074;2022-11-18T04:11:40;2.15;;;1.50;;
18657;SDS011;9458;50.942;5.074;2022-11-18T04:14:30;7.00;;;1.80;;
18657;SDS011;9458;50.942;5.074;2022-11-18T04:17:02;2.58;;;1.75;;
18657;SDS011;9458;50.942;5.074;2022-11-18T04:19:33;2.80;;;1.50;;
18657;SDS011;9458;50.942;5.074;2022-11-18T04:22:03;2.17;;;1.55;;
18657;SDS011;9458;50.942;5.074;2022-11-18T04:24:31;3.60;;;1.80;;
18657;SDS011;9458;50.942;5.074;2022-11-18T04:26:59;3.15;;;1.80;;
18657;SDS011;9458;50.942;5.074;2022-11-18T04:29:28;2.97;;;1.77;;
18657;SDS011;9458;50.942;5.074;2022-11-18T04:31:56;3.50;;;1.60;;
18657;SDS011;9458;50.942;5.074;2022-11-18T04:34:27;3.42;;;1.85;;
18657;SDS011;9458;50.942;5.074;2022-11-18T04:36:56;3.05;;;1.98;;
18657;SDS011;9458;50.942;5.074;2022-11-18T04:39:24;1.90;;;1.60;;
18657;SDS011;9458;50.942;5.074;2022-11-18T04:41:51;3.92;;;1.85;;
18657;SDS011;9458;50.942;5.074;2022-11-18T04:44:23;3.08;;;2.78;;
18657;SDS011;9458;50.942;5.074;2022-11-18T04:46:52;2.75;;;1.98;;
18657;SDS011;9458;50.942;5.074;2022-11-18T04:49:20;4.97;;;2.15;;
18657;SDS011;9458;50.942;5.074;2022-11-18T04:51:49;6.20;;;2.00;;
18657;SDS011;9458;50.942;5.074;2022-11-18T04:54:17;4.88;;;1.95;;
18657;SDS011;9458;50.942;5.074;2022-11-18T04:56:45;4.47;;;2.20;;
18657;SDS011;9458;50.942;5.074;2022-11-18T04:59:16;5.95;;;2.45;;
18657;SDS011;9458;50.942;5.074;2022-11-18T05:01:46;3.60;;;1.98;;
18657;SDS011;9458;50.942;5.074;2022-11-18T05:04:16;3.03;;;2.08;;
18657;SDS011;9458;50.942;5.074;2022-11-18T05:06:44;3.92;;;2.03;;
18657;SDS011;9458;50.942;5.074;2022-11-18T05:09:13;3.90;;;2.08;;
18657;SDS011;9458;50.942;5.074;2022-11-18T05:11:41;3.05;;;2.45;;
18657;SDS011;9458;50.942;5.074;2022-11-18T05:14:27;3.40;;;2.40;;
18657;SDS011;9458;50.942;5.074;2022-11-18T05:16:56;8.27;;;3.45;;
18657;SDS011;9458;50.942;5.074;2022-11-18T05:19:26;5.53;;;2.45;;
18657;SDS011;9458;50.942;5.074;2022-11-18T05:21:54;2.50;;;1.92;;
18657;SDS011;9458;50.942;5.074;2022-11-18T05:24:24;3.33;;;2.38;;
18657;SDS011;9458;50.942;5.074;2022-11-18T05:26:52;3.80;;;2.28;;
18657;SDS011;9458;50.942;5.074;2022-11-18T05:29:21;5.85;;;2.63;;
18657;SDS011;9458;50.942;5.074;2022-11-18T05:31:49;3.55;;;2.88;;
18657;SDS011;9458;50.942;5.074;2022-11-18T05:34:17;3.15;;;2.30;;
18657;SDS011;9458;50.942;5.074;2022-11-18T05:36:45;3.90;;;2.47;;
18657;SDS011;9458;50.942;5.074;2022-11-18T05:39:12;3.70;;;2.58;;
18657;SDS011;9458;50.942;5.074;2022-11-18T05:41:42;3.20;;;2.50;;
18657;SDS011;9458;50.942;5.074;2022-11-18T05:44:27;5.10;;;2.90;;
18657;SDS011;9458;50.942;5.074;2022-11-18T05:46:55;4.25;;;3.05;;
18657;SDS011;9458;50.942;5.074;2022-11-18T05:49:23;4.78;;;3.10;;
18657;SDS011;9458;50.942;5.074;2022-11-18T05:51:52;7.75;;;3.22;;
18657;SDS011;9458;50.942;5.074;2022-11-18T05:54:20;7.28;;;3.13;;
18657;SDS011;9458;50.942;5.074;2022-11-18T05:56:50;5.60;;;3.33;;
18657;SDS011;9458;50.942;5.074;2022-11-18T05:59:18;5.55;;;3.33;;
18657;SDS011;9458;50.942;5.074;2022-11-18T06:01:47;6.40;;;3.70;;
18657;SDS011;9458;50.942;5.074;2022-11-18T06:04:21;8.00;;;3.38;;
18657;SDS011;9458;50.942;5.074;2022-11-18T06:06:57;5.50;;;3.17;;
18657;SDS011;9458;50.942;5.074;2022-11-18T06:09:29;5.13;;;3.33;;
18657;SDS011;9458;50.942;5.074;2022-11-18T06:12:03;6.38;;;3.28;;
18657;SDS011;9458;50.942;5.074;2022-11-18T06:14:33;4.15;;;3.15;;
18657;SDS011;9458;50.942;5.074;2022-11-18T06:17:07;6.10;;;3.00;;
18657;SDS011;9458;50.942;5.074;2022-11-18T06:19:40;7.45;;;3.58;;
18657;SDS011;9458;50.942;5.074;2022-11-18T06:22:09;6.20;;;3.67;;
18657;SDS011;9458;50.942;5.074;2022-11-18T06:24:37;4.82;;;3.30;;
18657;SDS011;9458;50.942;5.074;2022-11-18T06:27:08;5.55;;;3.70;;
18657;SDS011;9458;50.942;5.074;2022-11-18T06:29:36;8.82;;;3.75;;
18657;SDS011;9458;50.942;5.074;2022-11-18T06:32:05;5.20;;;3.75;;
18657;SDS011;9458;50.942;5.074;2022-11-18T06:34:33;6.75;;;3.53;;
18657;SDS011;9458;50.942;5.074;2022-11-18T06:37:10;7.22;;;4.00;;
18657;SDS011;9458;50.942;5.074;2022-11-18T06:39:39;5.60;;;3.47;;
18657;SDS011;9458;50.942;5.074;2022-11-18T06:42:08;7.88;;;3.22;;
18657;SDS011;9458;50.942;5.074;2022-11-18T06:44:35;7.35;;;3.67;;
18657;SDS011;9458;50.942;5.074;2022-11-18T06:47:02;8.63;;;3.78;;
18657;SDS011;9458;50.942;5.074;2022-11-18T06:49:31;6.63;;;3.80;;
18657;SDS011;9458;50.942;5.074;2022-11-18T06:51:58;6.85;;;4.03;;
18657;SDS011;9458;50.942;5.074;2022-11-18T06:54:26;6.45;;;3.53;;
18657;SDS011;9458;50.942;5.074;2022-11-18T06:56:53;9.65;;;3.95;;
18657;SDS011;9458;50.942;5.074;2022-11-18T06:59:24;4.10;;;3.40;;
18657;SDS011;9458;50.942;5.074;2022-11-18T07:01:52;5.40;;;4.03;;
18657;SDS011;9458;50.942;5.074;2022-11-18T07:04:20;6.30;;;3.55;;
18657;SDS011;9458;50.942;5.074;2022-11-18T07:06:48;6.03;;;3.78;;
18657;SDS011;9458;50.942;5.074;2022-11-18T07:09:16;4.45;;;3.47;;
18657;SDS011;9458;50.942;5.074;2022-11-18T07:11:45;4.78;;;3.47;;
18657;SDS011;9458;50.942;5.074;2022-11-18T07:14:13;6.72;;;4.10;;
18657;SDS011;9458;50.942;5.074;2022-11-18T07:16:42;7.53;;;3.85;;
18657;SDS011;9458;50.942;5.074;2022-11-18T07:19:11;4.43;;;2.97;;
18657;SDS011;9458;50.942;5.074;2022-11-18T07:21:41;4.28;;;3.30;;
18657;SDS011;9458;50.942;5.074;2022-11-18T07:24:10;7.57;;;3.63;;
18657;SDS011;9458;50.942;5.074;2022-11-18T07:26:39;7.25;;;3.00;;
18657;SDS011;9458;50.942;5.074;2022-11-18T07:29:09;6.43;;;3.63;;
18657;SDS011;9458;50.942;5.074;2022-11-18T07:31:37;6.10;;;3.65;;
18657;SDS011;9458;50.942;5.074;2022-11-18T07:34:07;5.22;;;3.60;;
18657;SDS011;9458;50.942;5.074;2022-11-18T07:36:34;11.00;;;3.70;;
18657;SDS011;9458;50.942;5.074;2022-11-18T07:39:03;4.90;;;3.08;;
18657;SDS011;9458;50.942;5.074;2022-11-18T07:41:32;3.72;;;2.85;;
18657;SDS011;9458;50.942;5.074;2022-11-18T07:44:02;5.40;;;2.95;;
18657;SDS011;9458;50.942;5.074;2022-11-18T07:46:31;5.40;;;2.58;;
18657;SDS011;9458;50.942;5.074;2022-11-18T07:49:01;4.70;;;2.42;;
18657;SDS011;9458;50.942;5.074;2022-11-18T07:51:33;4.85;;;2.58;;
18657;SDS011;9458;50.942;5.074;2022-11-18T07:54:12;5.00;;;2.47;;
18657;SDS011;9458;50.942;5.074;2022-11-18T07:56:41;5.43;;;2.70;;
18657;SDS011;9458;50.942;5.074;2022-11-18T07:59:09;7.22;;;2.92;;
18657;SDS011;9458;50.942;5.074;2022-11-18T08:01:38;3.40;;;2.40;;
18657;SDS011;9458;50.942;5.074;2022-11-18T08:04:06;7.28;;;2.70;;
18657;SDS011;9458;50.942;5.074;2022-11-18T08:06:37;3.33;;;2.00;;
18657;SDS011;9458;50.942;5.074;2022-11-18T08:09:06;4.72;;;2.40;;
18657;SDS011;9458;50.942;5.074;2022-11-18T08:11:36;4.13;;;2.40;;
18657;SDS011;9458;50.942;5.074;2022-11-18T08:14:06;5.57;;;2.10;;
18657;SDS011;9458;50.942;5.074;2022-11-18T08:16:34;3.80;;;2.13;;
18657;SDS011;9458;50.942;5.074;2022-11-18T08:19:01;4.45;;;2.10;;
18657;SDS011;9458;50.942;5.074;2022-11-18T08:21:33;4.72;;;2.28;;
18657;SDS011;9458;50.942;5.074;2022-11-18T08:24:02;3.05;;;2.28;;
18657;SDS011;9458;50.942;5.074;2022-11-18T08:26:30;7.25;;;2.75;;
18657;SDS011;9458;50.942;5.074;2022-11-18T08:28:58;4.18;;;2.25;;
18657;SDS011;9458;50.942;5.074;2022-11-18T08:31:28;4.75;;;2.55;;
18657;SDS011;9458;50.942;5.074;2022-11-18T08:33:57;4.25;;;2.03;;
18657;SDS011;9458;50.942;5.074;2022-11-18T08:36:26;4.20;;;2.00;;
18657;SDS011;9458;50.942;5.074;2022-11-18T08:38:56;6.18;;;2.17;;
18657;SDS011;9458;50.942;5.074;2022-11-18T08:41:32;4.50;;;2.38;;
18657;SDS011;9458;50.942;5.074;2022-11-18T08:44:06;4.38;;;2.20;;
18657;SDS011;9458;50.942;5.074;2022-11-18T08:46:37;3.40;;;2.22;;
18657;SDS011;9458;50.942;5.074;2022-11-18T08:49:05;2.85;;;2.10;;
18657;SDS011;9458;50.942;5.074;2022-11-18T08:51:32;5.80;;;2.75;;
18657;SDS011;9458;50.942;5.074;2022-11-18T08:54:00;4.05;;;2.30;;
18657;SDS011;9458;50.942;5.074;2022-11-18T08:56:28;4.80;;;2.63;;
18657;SDS011;9458;50.942;5.074;2022-11-18T14:12:22;3.42;;;1.70;;
18657;SDS011;9458;50.942;5.074;2022-11-18T14:14:53;4.25;;;1.50;;
18657;SDS011;9458;50.942;5.074;2022-11-18T14:17:47;3.42;;;1.90;;
18657;SDS011;9458;50.942;5.074;2022-11-18T14:20:16;4.30;;;1.90;;
18657;SDS011;9458;50.942;5.074;2022-11-18T14:22:44;4.80;;;2.08;;
18657;SDS011;9458;50.942;5.074;2022-11-18T14:25:15;3.95;;;2.13;;
18657;SDS011;9458;50.942;5.074;2022-11-18T14:27:47;6.72;;;2.40;;
18657;SDS011;9458;50.942;5.074;2022-11-18T14:30:26;2.83;;;1.95;;
18657;SDS011;9458;50.942;5.074;2022-11-18T14:33:14;4.93;;;2.20;;
18657;SDS011;9458;50.942;5.074;2022-11-18T14:35:49;4.32;;;1.75;;
18657;SDS011;9458;50.942;5.074;2022-11-18T14:38:19;6.15;;;2.22;;
18657;SDS011;9458;50.942;5.074;2022-11-18T14:40:53;4.80;;;2.15;;
18657;SDS011;9458;50.942;5.074;2022-11-18T14:43:23;6.63;;;2.10;;
18657;SDS011;9458;50.942;5.074;2022-11-18T14:45:53;5.65;;;2.17;;
18657;SDS011;9458;50.942;5.074;2022-11-18T14:48:23;5.63;;;2.80;;
18657;SDS011;9458;50.942;5.074;2022-11-18T14:50:52;5.63;;;3.20;;
18657;SDS011;9458;50.942;5.074;2022-11-18T14:53:20;5.90;;;2.85;;
18657;SDS011;9458;50.942;5.074;2022-11-18T14:55:50;6.88;;;2.40;;
18657;SDS011;9458;50.942;5.074;2022-11-18T14:58:19;4.70;;;2.30;;
18657;SDS011;9458;50.942;5.074;2022-11-18T15:00:49;5.75;;;2.22;;
18657;SDS011;9458;50.942;5.074;2022-11-18T15:03:17;5.05;;;2.20;;
18657;SDS011;9458;50.942;5.074;2022-11-18T15:05:45;4.80;;;2.10;;
18657;SDS011;9458;50.942;5.074;2022-11-18T15:08:13;4.65;;;2.38;;
18657;SDS011;9458;50.942;5.074;2022-11-18T15:10:41;7.78;;;2.53;;
18657;SDS011;9458;50.942;5.074;2022-11-18T15:13:09;5.18;;;2.80;;
18657;SDS011;9458;50.942;5.074;2022-11-18T15:15:38;5.85;;;2.50;;
18657;SDS011;9458;50.942;5.074;2022-11-18T15:18:07;3.78;;;2.70;;
18657;SDS011;9458;50.942;5.074;2022-11-18T15:20:36;4.78;;;2.67;;
18657;SDS011;9458;50.942;5.074;2022-11-18T15:23:03;4.15;;;2.70;;
18657;SDS011;9458;50.942;5.074;2022-11-18T15:25:30;8.05;;;2.50;;
18657;SDS011;9458;50.942;5.074;2022-11-18T15:27:58;3.45;;;2.78;;
18657;SDS011;9458;50.942;5.074;2022-11-18T15:30:26;5.60;;;3.40;;
18657;SDS011;9458;50.942;5.074;2022-11-18T15:32:54;6.25;;;3.22;;
18657;SDS011;9458;50.942;5.074;2022-11-18T15:35:23;6.60;;;5.00;;
18657;SDS011;9458;50.942;5.074;2022-11-18T15:37:52;5.93;;;3.95;;
18657;SDS011;9458;50.942;5.074;2022-11-18T15:40:21;4.28;;;3.17;;
18657;SDS011;9458;50.942;5.074;2022-11-18T15:42:49;3.55;;;3.22;;
18657;SDS011;9458;50.942;5.074;2022-11-18T15:45:17;5.30;;;3.20;;
18657;SDS011;9458;50.942;5.074;2022-11-18T15:47:44;4.93;;;2.75;;
18657;SDS011;9458;50.942;5.074;2022-11-18T15:50:12;4.43;;;2.95;;
18657;SDS011;9458;50.942;5.074;2022-11-18T15:52:41;4.50;;;2.88;;
18657;SDS011;9458;50.942;5.074;2022-11-18T15:55:09;5.13;;;3.00;;
18657;SDS011;9458;50.942;5.074;2022-11-18T15:57:37;8.25;;;3.30;;
18657;SDS011;9458;50.942;5.074;2022-11-18T16:00:06;5.50;;;3.10;;
18657;SDS011;9458;50.942;5.074;2022-11-18T16:02:34;6.00;;;3.33;;
18657;SDS011;9458;50.942;5.074;2022-11-18T16:05:01;7.63;;;3.63;;
18657;SDS011;9458;50.942;5.074;2022-11-18T16:07:29;5.45;;;3.40;;
18657;SDS011;9458;50.942;5.074;2022-11-18T16:09:58;8.23;;;4.07;;
18657;SDS011;9458;50.942;5.074;2022-11-18T16:12:42;5.82;;;3.65;;
18657;SDS011;9458;50.942;5.074;2022-11-18T16:15:13;20.40;;;5.35;;
18657;SDS011;9458;50.942;5.074;2022-11-18T16:18:00;15.82;;;3.95;;
18657;SDS011;9458;50.942;5.074;2022-11-18T16:20:29;7.30;;;3.92;;
18657;SDS011;9458;50.942;5.074;2022-11-18T16:22:58;13.75;;;4.90;;
18657;SDS011;9458;50.942;5.074;2022-11-18T16:25:29;11.68;;;4.22;;
18657;SDS011;9458;50.942;5.074;2022-11-18T16:27:57;7.70;;;3.28;;
18657;SDS011;9458;50.942;5.074;2022-11-18T16:30:24;6.97;;;3.20;;
18657;SDS011;9458;50.942;5.074;2022-11-18T16:33:08;3.95;;;2.40;;
18657;SDS011;9458;50.942;5.074;2022-11-18T16:35:37;3.67;;;2.05;;
18657;SDS011;9458;50.942;5.074;2022-11-18T16:38:13;2.88;;;2.00;;
18657;SDS011;9458;50.942;5.074;2022-11-18T16:40:44;2.20;;;1.30;;
18657;SDS011;9458;50.942;5.074;2022-11-18T16:43:11;2.78;;;1.60;;
18657;SDS011;9458;50.942;5.074;2022-11-18T16:45:39;3.22;;;2.20;;
18657;SDS011;9458;50.942;5.074;2022-11-18T16:48:15;3.38;;;2.35;;
18657;SDS011;9458;50.942;5.074;2022-11-18T16:50:43;4.53;;;2.28;;
18657;SDS011;9458;50.942;5.074;2022-11-18T16:53:12;4.28;;;2.47;;
18657;SDS011;9458;50.942;5.074;2022-11-18T16:55:40;3.92;;;2.40;;
18657;SDS011;9458;50.942;5.074;2022-11-18T16:58:10;3.13;;;1.90;;
18657;SDS011;9458;50.942;5.074;2022-11-18T17:00:37;5.57;;;3.63;;
18657;SDS011;9458;50.942;5.074;2022-11-18T17:03:05;5.35;;;2.60;;
18657;SDS011;9458;50.942;5.074;2022-11-18T17:05:33;3.78;;;2.65;;
18657;SDS011;9458;50.942;5.074;2022-11-18T17:08:02;4.70;;;2.70;;
18657;SDS011;9458;50.942;5.074;2022-11-18T17:10:31;4.80;;;2.47;;
18657;SDS011;9458;50.942;5.074;2022-11-18T17:13:01;5.72;;;2.90;;
18657;SDS011;9458;50.942;5.074;2022-11-18T17:15:29;5.55;;;3.00;;
18657;SDS011;9458;50.942;5.074;2022-11-18T17:17:57;5.95;;;3.33;;
18657;SDS011;9458;50.942;5.074;2022-11-18T17:20:24;6.55;;;3.40;;
18657;SDS011;9458;50.942;5.074;2022-11-18T17:22:52;6.25;;;3.80;;
18657;SDS011;9458;50.942;5.074;2022-11-18T17:25:28;4.22;;;3.80;;
18657;SDS011;9458;50.942;5.074;2022-11-18T17:32:05;7.32;;;4.78;;
18657;SDS011;9458;50.942;5.074;2022-11-18T17:34:35;9.85;;;6.40;;
18657;SDS011;9458;50.942;5.074;2022-11-18T17:37:20;9.52;;;6.32;;
18657;SDS011;9458;50.942;5.074;2022-11-18T17:39:48;11.02;;;6.60;;
18657;SDS011;9458;50.942;5.074;2022-11-18T17:42:16;10.68;;;6.15;;
18657;SDS011;9458;50.942;5.074;2022-11-18T17:44:46;9.95;;;6.30;;
18657;SDS011;9458;50.942;5.074;2022-11-18T17:47:15;9.95;;;5.85;;
18657;SDS011;9458;50.942;5.074;2022-11-18T17:49:43;11.35;;;7.30;;
18657;SDS011;9458;50.942;5.074;2022-11-18T17:52:11;9.02;;;6.00;;
18657;SDS011;9458;50.942;5.074;2022-11-18T17:54:39;12.10;;;5.97;;
18657;SDS011;9458;50.942;5.074;2022-11-18T17:57:08;10.90;;;6.93;;
18657;SDS011;9458;50.942;5.074;2022-11-18T17:59:35;10.35;;;6.68;;
18657;SDS011;9458;50.942;5.074;2022-11-18T18:02:06;10.00;;;6.55;;
18657;SDS011;9458;50.942;5.074;2022-11-18T18:04:36;8.60;;;6.05;;
18657;SDS011;9458;50.942;5.074;2022-11-18T18:07:04;13.70;;;5.55;;
18657;SDS011;9458;50.942;5.074;2022-11-18T18:09:31;9.23;;;6.38;;
18657;SDS011;9458;50.942;5.074;2022-11-18T18:11:59;10.30;;;6.95;;
18657;SDS011;9458;50.942;5.074;2022-11-18T18:14:47;11.63;;;6.70;;
18657;SDS011;9458;50.942;5.074;2022-11-18T18:17:14;11.32;;;6.80;;
18657;SDS011;9458;50.942;5.074;2022-11-18T18:19:45;10.07;;;6.32;;
18657;SDS011;9458;50.942;5.074;2022-11-18T18:22:13;11.82;;;5.90;;
18657;SDS011;9458;50.942;5.074;2022-11-18T18:24:41;12.45;;;6.78;;
18657;SDS011;9458;50.942;5.074;2022-11-18T18:27:09;8.52;;;6.60;;
18657;SDS011;9458;50.942;5.074;2022-11-18T18:29:37;11.25;;;7.38;;
18657;SDS011;9458;50.942;5.074;2022-11-18T18:32:05;11.93;;;7.18;;
18657;SDS011;9458;50.942;5.074;2022-11-18T18:34:32;9.38;;;6.80;;
18657;SDS011;9458;50.942;5.074;2022-11-18T18:37:01;12.65;;;8.07;;
18657;SDS011;9458;50.942;5.074;2022-11-18T18:39:29;15.25;;;7.32;;
18657;SDS011;9458;50.942;5.074;2022-11-18T18:41:57;11.25;;;7.75;;
18657;SDS011;9458;50.942;5.074;2022-11-18T18:44:28;14.40;;;7.95;;
18657;SDS011;9458;50.942;5.074;2022-11-18T18:47:16;23.23;;;9.00;;
18657;SDS011;9458;50.942;5.074;2022-11-18T18:49:42;15.48;;;7.93;;
18657;SDS011;9458;50.942;5.074;2022-11-18T18:52:12;17.00;;;6.63;;
18657;SDS011;9458;50.942;5.074;2022-11-18T18:54:39;10.60;;;7.47;;
18657;SDS011;9458;50.942;5.074;2022-11-18T18:57:07;14.60;;;6.90;;
18657;SDS011;9458;50.942;5.074;2022-11-18T18:59:35;12.20;;;7.53;;
18657;SDS011;9458;50.942;5.074;2022-11-18T19:02:03;13.45;;;7.72;;
18657;SDS011;9458;50.942;5.074;2022-11-18T19:04:30;15.52;;;7.60;;
18657;SDS011;9458;50.942;5.074;2022-11-18T19:06:58;10.30;;;7.05;;
18657;SDS011;9458;50.942;5.074;2022-11-18T19:09:29;12.85;;;6.90;;
18657;SDS011;9458;50.942;5.074;2022-11-18T19:11:59;12.43;;;6.65;;
18657;SDS011;9458;50.942;5.074;2022-11-18T19:14:44;14.93;;;7.18;;
18657;SDS011;9458;50.942;5.074;2022-11-18T19:17:13;10.68;;;6.32;;
18657;SDS011;9458;50.942;5.074;2022-11-18T19:19:40;13.52;;;6.50;;
18657;SDS011;9458;50.942;5.074;2022-11-18T19:22:27;10.82;;;7.35;;
18657;SDS011;9458;50.942;5.074;2022-11-18T19:24:57;9.77;;;6.95;;
18657;SDS011;9458;50.942;5.074;2022-11-18T19:27:25;10.05;;;7.30;;
18657;SDS011;9458;50.942;5.074;2022-11-18T19:29:52;10.48;;;7.45;;
18657;SDS011;9458;50.942;5.074;2022-11-18T19:32:19;11.52;;;7.15;;
18657;SDS011;9458;50.942;5.074;2022-11-18T19:34:48;13.93;;;7.82;;
18657;SDS011;9458;50.942;5.074;2022-11-18T19:37:16;11.93;;;7.68;;
18657;SDS011;9458;50.942;5.074;2022-11-18T19:39:46;11.35;;;7.28;;
18657;SDS011;9458;50.942;5.074;2022-11-18T19:42:15;10.18;;;7.30;;
18657;SDS011;9458;50.942;5.074;2022-11-18T19:44:43;10.77;;;5.55;;
18657;SDS011;9458;50.942;5.074;2022-11-18T19:47:10;10.32;;;6.57;;
18657;SDS011;9458;50.942;5.074;2022-11-18T19:49:38;9.70;;;6.82;;
18657;SDS011;9458;50.942;5.074;2022-11-18T19:52:05;11.55;;;6.78;;
18657;SDS011;9458;50.942;5.074;2022-11-18T19:54:33;8.43;;;6.45;;
18657;SDS011;9458;50.942;5.074;2022-11-18T19:57:01;8.60;;;5.75;;
18657;SDS011;9458;50.942;5.074;2022-11-18T19:59:31;7.82;;;6.40;;
18657;SDS011;9458;50.942;5.074;2022-11-18T20:01:59;10.07;;;6.10;;
18657;SDS011;9458;50.942;5.074;2022-11-18T20:04:27;8.13;;;5.80;;
18657;SDS011;9458;50.942;5.074;2022-11-18T20:06:56;7.13;;;5.82;;
18657;SDS011;9458;50.942;5.074;2022-11-18T20:09:24;11.32;;;7.10;;
18657;SDS011;9458;50.942;5.074;2022-11-18T20:11:54;9.40;;;6.80;;
18657;SDS011;9458;50.942;5.074;2022-11-18T20:14:23;8.93;;;6.53;;
18657;SDS011;9458;50.942;5.074;2022-11-18T20:16:54;8.68;;;7.20;;
18657;SDS011;9458;50.942;5.074;2022-11-18T20:19:22;9.57;;;6.68;;
18657;SDS011;9458;50.942;5.074;2022-11-18T20:21:53;11.25;;;6.63;;
18657;SDS011;9458;50.942;5.074;2022-11-18T20:24:21;7.95;;;6.70;;
18657;SDS011;9458;50.942;5.074;2022-11-18T20:26:49;13.55;;;6.78;;
18657;SDS011;9458;50.942;5.074;2022-11-18T20:29:17;11.55;;;6.60;;
18657;SDS011;9458;50.942;5.074;2022-11-18T20:31:45;12.88;;;6.85;;
18657;SDS011;9458;50.942;5.074;2022-11-18T20:34:14;9.00;;;6.93;;
18657;SDS011;9458;50.942;5.074;2022-11-18T20:36:42;9.80;;;6.78;;
18657;SDS011;9458;50.942;5.074;2022-11-18T20:39:12;8.35;;;7.05;;
18657;SDS011;9458;50.942;5.074;2022-11-18T20:41:41;8.90;;;6.82;;
18657;SDS011;9458;50.942;5.074;2022-11-18T20:44:28;7.75;;;6.18;;
18657;SDS011;9458;50.942;5.074;2022-11-18T20:46:56;7.88;;;6.30;;